Time;durP1;ratioP1;P1;durP2;ratioP2;P2;SDS_P1;SDS_P2;PMS_P1;PMS_P2;Temp;Humidity;BMP_temperature;BMP_pressure;BME280_temperature;BME280_humidity;BME280_pressure;Samples;Min_cycle;Max_cycle;Signal;HPM_P1;HPM_P2
2022/12/22 03:26:24;;;;;;;47.88;23.58;;;;;;;-2.19;85.18;100458.31;5089696;28;20475;-26
2022/12/22 03:28:50;;;;;;;35.78;20.13;;;;;;;-2.64;84.38;100455.88;5089367;28;20507;-26
2022/12/22 03:31:15;;;;;;;50.42;24.08;;;;;;;-2.34;83.13;100446.50;5070779;28;20028;-25
2022/12/22 03:33:41;;;;;;;51.95;26.27;;;;;;;-2.34;84.12;100459.56;5089076;28;20060;-27
2022/12/22 03:36:07;;;;;;;46.38;23.05;;;;;;;-2.52;85.54;100462.72;5070966;28;20415;-25
2022/12/22 03:38:33;;;;;;;40.47;20.33;;;;;;;-2.78;84.70;100440.50;5088966;28;20401;-27
2022/12/22 03:40:58;;;;;;;38.90;19.00;;;;;;;-3.12;84.69;100419.72;5070940;28;20034;-27
2022/12/22 03:46:30;;;;;;;34.13;17.27;;;;;;;-2.80;85.29;100458.06;5089037;28;20059;-27
2022/12/22 03:49:09;;;;;;;30.65;15.65;;;;;;;-3.00;84.82;100452.66;5088784;28;20123;-27
2022/12/22 03:51:39;;;;;;;41.05;17.30;;;;;;;-2.89;84.37;100463.06;5070908;28;20031;-32
2022/12/22 03:54:06;;;;;;;36.10;17.27;;;;;;;-2.99;85.00;100427.41;5088933;28;20046;-26
2022/12/22 03:56:32;;;;;;;39.95;19.70;;;;;;;-2.71;84.80;100429.44;5088837;28;20016;-25
2022/12/22 03:58:57;;;;;;;44.38;21.15;;;;;;;-2.59;85.28;100435.47;5088545;28;20089;-26
2022/12/22 04:01:23;;;;;;;47.40;22.00;;;;;;;-2.47;84.92;100444.91;5088222;28;20024;-25
2022/12/22 04:03:49;;;;;;;42.50;20.83;;;;;;;-2.31;84.87;100460.16;5088783;28;20098;-25
2022/12/22 04:06:15;;;;;;;41.33;21.63;;;;;;;-2.25;84.21;100464.88;5088590;28;20089;-26
2022/12/22 04:08:41;;;;;;;42.85;21.60;;;;;;;-2.23;83.95;100472.56;5088696;28;20036;-26
2022/12/22 04:13:52;;;;;;;37.55;20.70;;;;;;;-2.46;86.69;100441.31;5088250;28;20047;-27
2022/12/22 04:16:17;;;;;;;37.95;22.30;;;;;;;-2.10;87.56;100457.56;5088561;28;20028;-25
2022/12/22 04:18:42;;;;;;;42.13;22.15;;;;;;;-1.74;85.30;100451.97;5088413;28;20507;-25
2022/12/22 04:21:08;;;;;;;44.20;21.63;;;;;;;-1.94;84.60;100451.03;5088342;28;20028;-26
2022/12/22 04:23:33;;;;;;;39.72;20.98;;;;;;;-2.18;86.08;100431.22;5088340;28;20027;-26
2022/12/22 04:25:59;;;;;;;46.67;22.88;;;;;;;-1.98;84.86;100441.78;5088414;28;20032;-25
2022/12/22 04:28:24;;;;;;;43.42;24.35;;;;;;;-2.19;83.66;100405.22;5069683;28;20031;-28
2022/12/22 04:30:50;;;;;;;61.63;29.00;;;;;;;-1.99;83.52;100438.34;5088318;28;20452;-25
2022/12/22 04:33:16;;;;;;;58.60;28.98;;;;;;;-2.09;83.34;100421.78;5087701;28;20142;-26
2022/12/22 04:35:41;;;;;;;64.13;30.73;;;;;;;-2.05;82.93;100444.91;5088181;28;20024;-27
2022/12/22 04:38:07;;;;;;;59.47;27.60;;;;;;;-2.31;84.15;100438.41;5088030;28;20028;-25
2022/12/22 04:40:32;;;;;;;49.70;25.00;;;;;;;-2.29;85.42;100441.72;5088206;28;20495;-29
2022/12/22 04:42:57;;;;;;;40.53;21.67;;;;;;;-2.15;83.89;100449.25;5069447;28;20032;-28
2022/12/22 04:45:23;;;;;;;44.17;22.67;;;;;;;-2.27;82.79;100429.38;5087717;28;20054;-26
2022/12/22 04:47:48;;;;;;;48.50;25.33;;;;;;;-2.07;83.61;100446.00;5069634;28;20092;-25
2022/12/22 04:50:14;;;;;;;51.53;25.92;;;;;;;-2.09;83.57;100438.28;5069624;28;20024;-25
2022/12/22 04:52:39;;;;;;;57.05;28.40;;;;;;;-2.09;83.06;100435.69;5087711;28;20028;-26
2022/12/22 04:55:05;;;;;;;61.72;32.25;;;;;;;-2.14;85.05;100423.97;5087326;28;20685;-25
2022/12/22 04:57:31;;;;;;;58.10;31.08;;;;;;;-2.24;84.68;100440.41;5087506;28;20062;-28
2022/12/22 04:59:56;;;;;;;59.10;27.35;;;;;;;-2.15;83.89;100444.03;5087840;28;20123;-30
2022/12/22 05:02:22;;;;;;;52.78;27.15;;;;;;;-2.26;83.05;100420.59;5087874;28;20035;-27
2022/12/22 05:04:47;;;;;;;51.17;26.88;;;;;;;-2.23;83.02;100439.47;5087508;28;20051;-27
2022/12/22 05:07:13;;;;;;;47.75;24.33;;;;;;;-2.32;83.96;100437.59;5087167;28;20055;-28
2022/12/22 05:09:38;;;;;;;51.35;25.38;;;;;;;-2.33;84.79;100435.09;5087006;28;20047;-28
2022/12/22 05:12:53;;;;;;;49.40;25.88;;;;;;;-2.18;85.59;100444.28;5087308;28;20113;-26
2022/12/22 05:14:49;;;;;;;47.22;25.73;;;;;;;-2.67;84.87;100430.03;5087306;28;20132;-27
2022/12/22 05:17:15;;;;;;;58.83;29.35;;;;;;;-2.53;83.92;100445.41;5087282;28;20805;-27
2022/12/22 05:19:40;;;;;;;46.78;26.30;;;;;;;-2.61;84.35;100439.97;5087174;28;20028;-26
2022/12/22 05:22:05;;;;;;;48.40;25.75;;;;;;;-2.50;84.93;100444.31;5087719;28;20036;-26
2022/12/22 05:24:31;;;;;;;58.15;26.75;;;;;;;-2.61;85.38;100432.16;5068877;28;20050;-26
2022/12/22 05:26:56;;;;;;;51.67;28.00;;;;;;;-2.54;85.81;100428.06;5087115;28;20039;-28
2022/12/22 05:29:22;;;;;;;53.78;26.02;;;;;;;-2.72;85.82;100432.19;5087036;28;20035;-29
2022/12/22 05:31:47;;;;;;;59.13;28.25;;;;;;;-2.44;85.41;100426.38;5086983;28;20510;-27
2022/12/22 05:34:12;;;;;;;54.75;26.38;;;;;;;-2.26;82.99;100446.72;5087501;28;20107;-26
2022/12/22 05:36:38;;;;;;;54.05;26.50;;;;;;;-2.10;82.27;100434.03;5068791;28;20551;-25
2022/12/22 05:39:03;;;;;;;50.25;26.17;;;;;;;-2.48;83.08;100435.41;5086843;28;20829;-25
2022/12/22 05:41:29;;;;;;;47.75;26.05;;;;;;;-2.46;83.54;100435.28;5068453;28;20032;-28
2022/12/22 05:43:54;;;;;;;55.10;27.13;;;;;;;-2.73;86.34;100439.19;5087219;28;20047;-26
2022/12/22 05:46:19;;;;;;;50.55;27.10;;;;;;;-2.55;83.90;100447.31;5087053;28;20428;-26
2022/12/22 05:48:45;;;;;;;53.45;26.27;;;;;;;-2.61;84.34;100442.59;5068752;28;20028;-26
2022/12/22 05:51:10;;;;;;;49.28;27.25;;;;;;;-2.71;84.87;100458.16;5087009;28;20034;-25
2022/12/22 05:53:37;;;;;;;53.45;26.88;;;;;;;-2.62;84.32;100451.38;5086869;28;20028;-26
2022/12/22 05:56:02;;;;;;;54.72;29.30;;;;;;;-2.34;83.17;100451.75;5068679;28;20035;-26
2022/12/22 05:58:28;;;;;;;57.42;28.60;;;;;;;-2.49;82.88;100436.38;5086778;28;20024;-28
2022/12/22 06:00:57;;;;;;;62.20;29.70;;;;;;;-2.78;83.42;100456.16;5087044;28;20071;-27
2022/12/22 06:03:24;;;;;;;51.85;28.38;;;;;;;-2.68;83.67;100447.47;5086782;28;20103;-26
2022/12/22 06:05:49;;;;;;;48.13;27.05;;;;;;;-2.67;83.79;100456.97;5068716;28;20127;-26
2022/12/22 06:08:15;;;;;;;56.63;27.92;;;;;;;-2.56;85.09;100439.59;5086678;28;20103;-27
2022/12/22 06:10:40;;;;;;;56.78;27.08;;;;;;;-2.42;83.58;100447.97;5068126;28;20503;-26
2022/12/22 06:13:05;;;;;;;50.42;27.33;;;;;;;-2.49;82.34;100472.94;5086619;28;20053;-25
2022/12/22 06:15:31;;;;;;;62.90;27.42;;;;;;;-2.76;83.58;100449.03;5086666;28;20035;-27
2022/12/22 06:17:56;;;;;;;60.88;29.08;;;;;;;-2.89;84.51;100444.81;5068517;28;20031;-27
2022/12/22 06:20:22;;;;;;;57.85;28.25;;;;;;;-2.60;85.03;100470.34;5086774;28;20028;-26
2022/12/22 06:22:47;;;;;;;57.53;29.42;;;;;;;-2.74;85.07;100444.53;5089499;28;20020;-29
2022/12/22 06:25:12;;;;;;;54.70;28.55;;;;;;;-2.68;84.93;100441.41;5071903;28;20040;-28
2022/12/22 06:27:38;;;;;;;52.80;28.30;;;;;;;-2.72;84.31;100453.88;5090913;28;20028;-27
2022/12/22 06:30:04;;;;;;;51.55;26.85;;;;;;;-2.62;83.68;100456.59;5090430;28;20035;-26
2022/12/22 06:32:29;;;;;;;59.55;27.23;;;;;;;-2.65;84.24;100482.97;5071764;28;20528;-25
2022/12/22 06:34:55;;;;;;;58.22;27.23;;;;;;;-2.73;83.55;100454.03;5090314;28;20064;-28
2022/12/22 06:37:20;;;;;;;60.78;26.00;;;;;;;-2.60;84.47;100486.00;5071623;28;22049;-27
2022/12/22 06:39:46;;;;;;;50.05;25.95;;;;;;;-2.28;84.31;100487.81;5071875;28;20035;-26
2022/12/22 06:44:55;;;;;;;62.50;32.63;;;;;;;-1.88;84.01;100481.88;5090439;28;20118;-26
2022/12/22 06:47:21;;;;;;;64.10;32.22;;;;;;;-1.95;84.58;100491.22;5089831;28;20036;-27
2022/12/22 06:49:46;;;;;;;68.68;34.35;;;;;;;-2.04;85.99;100453.63;5071906;28;20036;-30
2022/12/22 06:52:11;;;;;;;114.80;52.13;;;;;;;-1.82;86.52;100479.63;5089860;28;20020;-31
2022/12/22 06:54:37;;;;;;;105.55;50.50;;;;;;;-1.77;85.90;100463.53;5090547;28;20480;-27
2022/12/22 06:57:02;;;;;;;90.47;43.45;;;;;;;-1.54;86.89;100476.44;5089423;28;20099;-31
2022/12/22 06:59:28;;;;;;;187.95;77.95;;;;;;;-1.42;85.83;100485.88;5090139;28;20118;-26
2022/12/22 07:01:53;;;;;;;212.55;84.85;;;;;;;-1.25;85.58;100480.03;5089873;28;20043;-27
2022/12/22 07:04:20;;;;;;;122.05;58.95;;;;;;;-1.19;85.74;100477.84;5089694;28;20032;-28
2022/12/22 07:06:48;;;;;;;71.03;38.92;;;;;;;-1.11;86.28;100481.44;5089520;28;20030;-28
2022/12/22 07:09:14;;;;;;;;;;;;;;;-0.94;85.98;100487.00;5089742;28;20032;-28
2022/12/22 07:11:39;;;;;;;75.60;39.97;;;;;;;-0.97;86.78;100482.03;5088287;28;19908;-27
2022/12/22 07:14:05;;;;;;;81.43;42.55;;;;;;;-0.90;86.64;100484.00;5089312;28;20038;-28
2022/12/22 07:16:30;;;;;;;78.30;40.10;;;;;;;-0.79;86.70;100479.59;5089677;28;20085;-29
2022/12/22 07:20:23;;;;;;;91.13;43.03;;;;;;;-0.74;87.26;100475.59;4833386;27;8558965;-27
2022/12/22 07:22:49;;;;;;;82.40;43.65;;;;;;;-0.90;87.90;100463.03;5102857;28;20081;-29
2022/12/22 07:25:14;;;;;;;92.22;42.92;;;;;;;-0.67;87.45;100484.56;5103689;28;20020;-27
2022/12/22 07:27:40;;;;;;;79.90;41.60;;;;;;;-0.32;86.02;100472.75;5104664;28;20106;-25
2022/12/22 07:30:06;;;;;;;84.53;42.80;;;;;;;-0.05;85.50;100482.50;5104268;28;20035;-26
2022/12/22 07:32:32;;;;;;;77.95;41.75;;;;;;;0.00;85.86;100476.88;5104169;28;20032;-27
2022/12/22 07:34:57;;;;;;;74.65;38.97;;;;;;;0.11;86.15;100478.50;5103951;28;20080;-27
2022/12/22 07:37:22;;;;;;;66.00;34.15;;;;;;;0.26;83.96;100466.59;5104100;28;20024;-30
2022/12/22 07:39:48;;;;;;;64.10;34.17;;;;;;;0.17;85.35;100480.56;5103435;28;20323;-27
2022/12/22 07:44:57;;;;;;;62.97;35.78;;;;;;;0.59;84.73;100467.88;5104160;28;20707;-25
2022/12/22 07:47:23;;;;;;;65.03;37.08;;;;;;;0.71;83.71;100484.25;5102400;28;20114;-30
2022/12/22 07:52:32;;;;;;;50.60;28.70;;;;;;;0.92;81.51;100465.66;5103767;28;20426;-29
2022/12/22 07:54:57;;;;;;;53.17;30.83;;;;;;;1.04;82.91;100483.81;5102151;28;20031;-26
2022/12/22 07:57:25;;;;;;;117.80;55.88;;;;;;;1.15;82.50;100467.88;5103712;28;20080;-29
2022/12/22 07:59:50;;;;;;;54.42;31.48;;;;;;;1.51;81.71;100465.25;5102252;28;20042;-26
2022/12/22 08:02:15;;;;;;;56.13;31.75;;;;;;;1.58;79.98;100464.53;5102940;28;20016;-28
2022/12/22 08:04:41;;;;;;;44.75;27.00;;;;;;;1.64;80.18;100484.13;5103454;28;20058;-26
2022/12/22 08:07:06;;;;;;;57.58;32.33;;;;;;;1.91;79.12;100495.53;5103121;28;20464;-26
2022/12/22 08:09:32;;;;;;;43.53;26.02;;;;;;;1.85;78.94;100489.06;5103656;28;20043;-26
2022/12/22 08:11:57;;;;;;;50.22;28.27;;;;;;;1.71;81.02;100492.25;5103182;28;20035;-27
2022/12/22 08:14:23;;;;;;;45.13;28.00;;;;;;;1.79;80.83;100474.72;5103240;28;20460;-29
2022/12/22 08:16:48;;;;;;;52.28;28.23;;;;;;;2.23;79.09;100497.59;5103203;28;20380;-25
2022/12/22 08:19:13;;;;;;;52.00;28.17;;;;;;;1.93;80.69;100459.38;5089987;28;20467;-27
2022/12/22 08:21:39;;;;;;;49.20;27.10;;;;;;;1.94;80.35;100477.66;5092931;28;21614;-26
2022/12/22 08:24:05;;;;;;;54.55;31.75;;;;;;;2.36;79.76;100484.03;5101739;28;20050;-26
2022/12/22 08:26:35;;;;;;;49.90;29.80;;;;;;;2.54;77.77;100482.16;5084080;28;20039;-30
2022/12/22 08:29:19;;;;;;;47.13;26.08;;;;;;;2.31;78.66;100473.13;5102401;28;20024;-29
2022/12/22 08:31:45;;;;;;;43.85;25.02;;;;;;;2.49;78.50;100468.63;5089051;28;20135;-31
2022/12/22 08:34:14;;;;;;;41.75;24.40;;;;;;;2.48;77.28;100471.44;5089115;28;20115;-28
2022/12/22 08:36:45;;;;;;;43.70;24.63;;;;;;;2.54;77.09;100455.00;5089127;28;20028;-29
2022/12/22 08:39:11;;;;;;;42.10;24.30;;;;;;;2.97;75.62;100466.38;5088990;28;20063;-29
2022/12/22 08:41:48;;;;;;;46.33;25.80;;;;;;;3.07;76.64;100445.19;5070845;28;20059;-27
2022/12/22 08:44:14;;;;;;;45.35;24.90;;;;;;;3.11;76.83;100468.41;5088962;28;20020;-28
2022/12/22 08:46:40;;;;;;;46.33;26.25;;;;;;;3.31;75.77;100474.22;5088597;28;20148;-29
2022/12/22 08:49:05;;;;;;;40.03;24.30;;;;;;;2.96;76.33;100441.00;5087686;28;20506;-31
2022/12/22 08:51:31;;;;;;;39.03;23.05;;;;;;;3.44;74.74;100468.47;5089011;28;20028;-28
2022/12/22 08:53:56;;;;;;;37.83;21.85;;;;;;;3.39;75.82;100454.94;5089040;28;20122;-28
2022/12/22 08:56:22;;;;;;;45.25;21.77;;;;;;;3.55;75.23;100460.25;5070521;28;20024;-35
2022/12/22 08:58:47;;;;;;;39.25;21.95;;;;;;;3.75;75.26;100454.66;5070082;28;20035;-32
2022/12/22 09:01:20;;;;;;;36.55;22.85;;;;;;;3.83;75.55;100452.03;5088837;28;20036;-27
2022/12/22 09:03:50;;;;;;;42.40;23.52;;;;;;;4.05;74.38;100428.59;5089026;28;20020;-30
2022/12/22 09:06:17;;;;;;;39.33;22.45;;;;;;;4.21;73.56;100433.84;5070434;28;20221;-35
2022/12/22 09:08:42;;;;;;;40.65;23.40;;;;;;;4.28;72.84;100440.09;5070670;28;20140;-33
2022/12/22 09:11:08;;;;;;;33.17;21.63;;;;;;;4.58;72.42;100427.13;5088682;28;20521;-28
2022/12/22 09:13:33;;;;;;;39.95;21.63;;;;;;;4.27;72.40;100405.94;5087250;28;20021;-27
2022/12/22 09:15:58;;;;;;;47.20;23.25;;;;;;;4.58;72.71;100411.28;5088952;28;20036;-28
2022/12/22 09:18:24;;;;;;;39.63;23.05;;;;;;;4.74;71.21;100416.50;5088288;28;20020;-29
2022/12/22 09:20:55;;;;;;;37.05;20.70;;;;;;;4.87;71.13;100420.41;5088693;28;20048;-26
2022/12/22 09:23:21;;;;;;;39.53;21.55;;;;;;;4.97;72.00;100384.00;5088826;28;20042;-29
2022/12/22 09:25:46;;;;;;;38.20;21.13;;;;;;;5.13;71.16;100399.78;5088420;28;20090;-32
2022/12/22 09:28:12;;;;;;;38.42;23.50;;;;;;;5.62;69.43;100394.13;5088115;28;20096;-27
2022/12/22 09:30:38;;;;;;;40.40;26.88;;;;;;;5.98;66.90;100396.13;5088659;28;20471;-31
2022/12/22 09:33:03;;;;;;;38.70;23.13;;;;;;;5.73;66.87;100371.69;5069957;28;20039;-28
2022/12/22 09:35:28;;;;;;;39.38;22.75;;;;;;;6.03;66.75;100372.59;5088531;28;20032;-27
2022/12/22 09:37:54;;;;;;;35.40;21.80;;;;;;;6.35;64.36;100365.28;5069877;28;20031;-28
2022/12/22 09:40:21;;;;;;;37.20;23.27;;;;;;;6.17;64.39;100363.03;5087340;28;20036;-30
2022/12/22 09:42:46;;;;;;;45.20;27.55;;;;;;;6.63;64.89;100361.97;5068331;28;20124;-28
2022/12/22 09:45:18;;;;;;;48.33;30.80;;;;;;;6.89;63.55;100355.34;5070091;28;20128;-28
2022/12/22 09:47:52;;;;;;;44.33;27.58;;;;;;;6.95;62.94;100360.69;5088174;28;20028;-31
2022/12/22 09:50:22;;;;;;;51.70;32.88;;;;;;;7.40;61.24;100368.50;5069730;28;20067;-30
2022/12/22 09:53:00;;;;;;;58.42;35.53;;;;;;;7.46;61.64;100370.38;5087771;28;20043;-29
2022/12/22 09:55:37;;;;;;;59.67;33.35;;;;;;;7.00;63.04;100354.81;5088082;28;20028;-28
2022/12/22 09:58:02;;;;;;;53.42;33.33;;;;;;;7.35;60.76;100344.34;5069305;28;20036;-29
2022/12/22 10:00:28;;;;;;;58.65;34.20;;;;;;;7.89;59.04;100362.34;5087748;28;20659;-28
2022/12/22 10:03:03;;;;;;;48.63;28.08;;;;;;;8.04;58.77;100360.38;5069401;28;20046;-28
2022/12/22 10:05:43;;;;;;;44.08;24.90;;;;;;;7.87;58.37;100345.78;5069338;28;20470;-30
2022/12/22 10:08:15;;;;;;;44.67;26.65;;;;;;;7.91;58.49;100343.56;5052581;28;20040;-28
2022/12/22 10:10:41;;;;;;;41.08;23.45;;;;;;;8.14;58.05;100343.28;5049420;28;20029;-27
2022/12/22 10:13:16;;;;;;;35.65;20.90;;;;;;;8.24;59.41;100338.44;5049315;28;20023;-27
2022/12/22 10:15:42;;;;;;;33.17;19.88;;;;;;;8.00;58.65;100324.59;5049342;28;20036;-32
2022/12/22 10:18:09;;;;;;;34.10;22.20;;;;;;;8.32;57.81;100324.97;5066807;28;20042;-29
2022/12/22 10:20:37;;;;;;;81.47;63.47;;;;;;;8.48;56.58;100336.31;5067065;28;20529;-28
2022/12/22 10:23:34;;;;;;;35.40;21.45;;;;;;;8.73;55.05;100334.78;5067203;28;20028;-30
2022/12/22 10:26:23;;;;;;;32.83;20.45;;;;;;;8.63;56.85;100329.03;5070339;28;20403;-31
2022/12/22 10:28:53;;;;;;;36.92;23.40;;;;;;;9.27;56.70;100326.91;5049457;28;20047;-31
2022/12/22 10:31:26;;;;;;;35.33;20.63;;;;;;;9.34;54.73;100317.91;5067580;28;20059;-31
2022/12/22 10:34:09;;;;;;;33.22;20.52;;;;;;;9.68;55.52;100313.34;5049024;28;20513;-29
2022/12/22 10:36:35;;;;;;;41.75;29.02;;;;;;;9.89;53.17;100307.00;5048910;28;20097;-29
2022/12/22 10:39:09;;;;;;;28.30;17.60;;;;;;;9.89;52.63;100322.97;5048497;28;20066;-31
2022/12/22 10:41:40;;;;;;;28.67;18.85;;;;;;;9.72;51.93;100330.56;5066945;28;20056;-34
2022/12/22 10:44:19;;;;;;;28.80;18.05;;;;;;;9.83;53.47;100310.50;5049001;28;20482;-29
2022/12/22 10:46:48;;;;;;;30.42;19.13;;;;;;;9.58;54.07;100305.81;5048976;28;20105;-27
2022/12/22 10:49:16;;;;;;;29.65;19.17;;;;;;;9.77;53.13;100298.00;5048728;28;20033;-33
2022/12/22 10:51:44;;;;;;;32.03;19.45;;;;;;;10.14;51.82;100300.97;5048873;28;20035;-27
2022/12/22 10:54:27;;;;;;;34.15;21.58;;;;;;;10.66;51.40;100304.47;5048467;28;20067;-29
2022/12/22 10:57:27;;;;;;;37.72;20.80;;;;;;;11.14;49.57;100295.16;5048719;28;20035;-29
2022/12/22 10:59:57;;;;;;;46.38;34.25;;;;;;;11.41;46.73;100295.75;5033226;28;20406;-29
2022/12/22 11:02:25;;;;;;;31.90;20.25;;;;;;;11.22;47.41;100295.69;5066422;28;20021;-29
2022/12/22 11:04:52;;;;;;;37.70;24.55;;;;;;;11.38;47.55;100289.00;5048585;28;20127;-28
2022/12/22 11:07:18;;;;;;;34.58;21.52;;;;;;;11.60;47.06;100268.03;5048361;28;20048;-28
2022/12/22 11:09:44;;;;;;;30.13;19.75;;;;;;;12.00;45.44;100275.66;5066801;28;20040;-28
2022/12/22 11:12:27;;;;;;;30.25;19.55;;;;;;;12.07;45.38;100267.56;5047703;28;20025;-33
2022/12/22 11:15:00;;;;;;;31.52;18.05;;;;;;;11.21;46.35;100270.03;5048359;28;20036;-32
2022/12/22 11:18:13;;;;;;;29.40;18.67;;;;;;;11.42;46.23;100254.63;5048258;28;20024;-28
2022/12/22 11:21:20;;;;;;;29.45;18.63;;;;;;;11.79;44.84;100260.03;5028666;28;20408;-30
2022/12/22 11:24:07;;;;;;;29.30;18.65;;;;;;;11.84;45.62;100254.84;5046282;28;20091;-29
2022/12/22 11:26:35;;;;;;;31.85;19.70;;;;;;;12.03;45.89;100245.00;5046279;28;20056;-28
2022/12/22 11:29:14;;;;;;;28.75;18.33;;;;;;;12.54;43.74;100251.75;5045909;28;20032;-34
2022/12/22 11:31:43;;;;;;;29.38;18.13;;;;;;;13.05;43.24;100262.94;5044860;28;20562;-31
2022/12/22 11:34:17;;;;;;;;;;;;;;;12.89;43.30;100255.56;5046344;28;20025;-28
2022/12/22 11:37:01;;;;;;;32.25;18.80;;;;;;;12.91;44.14;100261.50;5044851;28;19919;-29
2022/12/22 11:39:35;;;;;;;33.72;20.10;;;;;;;12.61;43.96;100246.31;5046100;28;20029;-29
2022/12/22 11:42:16;;;;;;;31.50;19.42;;;;;;;12.89;42.58;100258.25;5046411;28;20517;-31
2022/12/22 11:45:12;;;;;;;31.55;19.10;;;;;;;12.67;43.01;100248.09;5045481;28;20048;-29
2022/12/22 11:47:50;;;;;;;28.83;17.52;;;;;;;13.23;42.97;100245.97;5045748;28;20032;-30
2022/12/22 11:50:34;;;;;;;29.50;17.92;;;;;;;13.08;42.15;100249.09;5044686;28;20044;-29
2022/12/22 11:53:14;;;;;;;29.58;17.35;;;;;;;12.53;44.13;100236.75;5044736;28;20040;-32
2022/12/22 11:55:46;;;;;;;31.95;17.33;;;;;;;12.80;42.44;100237.16;5044432;28;20032;-30
2022/12/22 11:58:39;;;;;;;25.85;16.30;;;;;;;13.01;41.74;100235.81;5044209;28;20025;-28
2022/12/22 12:01:42;;;;;;;27.60;17.05;;;;;;;12.93;41.91;100235.31;5045711;28;20141;-36
2022/12/22 12:04:54;;;;;;;37.10;23.02;;;;;;;13.72;41.74;100235.84;5045502;28;20029;-31
2022/12/22 12:07:30;;;;;;;27.50;17.02;;;;;;;13.94;40.50;100233.38;5049876;28;20131;-28
2022/12/22 12:10:02;;;;;;;25.58;15.40;;;;;;;13.51;39.88;100223.88;5048192;28;20033;-33
2022/12/22 12:12:44;;;;;;;26.42;15.50;;;;;;;13.83;38.53;100220.78;5047354;28;20051;-28
2022/12/22 12:15:33;;;;;;;25.75;16.05;;;;;;;14.38;38.48;100244.41;5049615;28;20029;-28
2022/12/22 12:18:07;;;;;;;25.98;17.23;;;;;;;14.95;38.17;100211.34;5047868;28;20043;-32
2022/12/22 12:20:53;;;;;;;24.30;15.32;;;;;;;15.46;35.22;100232.78;5054211;28;20056;-33
2022/12/22 12:23:36;;;;;;;21.00;14.25;;;;;;;15.18;35.63;100209.53;5069455;28;20032;-28
2022/12/22 12:26:10;;;;;;;23.50;14.45;;;;;;;15.47;34.73;100226.38;5050789;28;20032;-31
2022/12/22 12:28:41;;;;;;;20.60;13.10;;;;;;;15.55;34.37;100239.38;5069361;28;20079;-29
2022/12/22 12:31:11;;;;;;;19.83;13.10;;;;;;;15.83;36.57;100218.78;5069063;28;20024;-30
2022/12/22 12:33:59;;;;;;;20.65;15.05;;;;;;;16.24;34.20;100221.97;5050776;28;20021;-32
2022/12/22 12:36:37;;;;;;;26.00;18.58;;;;;;;16.28;33.69;100223.09;5049451;28;20052;-29
2022/12/22 12:39:20;;;;;;;23.95;15.65;;;;;;;16.32;34.89;100220.72;5068687;28;20023;-28
2022/12/22 12:41:58;;;;;;;25.95;16.80;;;;;;;17.09;32.78;100219.56;5050577;28;20040;-30
2022/12/22 12:44:33;;;;;;;27.60;18.80;;;;;;;17.50;33.00;100227.09;5068460;28;20111;-28
2022/12/22 12:47:24;;;;;;;23.50;15.18;;;;;;;17.78;31.67;100207.81;5050858;28;20093;-34
2022/12/22 12:50:08;;;;;;;26.23;18.17;;;;;;;18.13;31.39;100224.47;5050522;28;20068;-31
2022/12/22 12:52:42;;;;;;;38.28;25.30;;;;;;;18.61;31.22;100222.38;5069048;28;20029;-31
2022/12/22 12:55:29;;;;;;;32.10;20.35;;;;;;;18.84;31.84;100229.22;5068411;28;20116;-30
2022/12/22 12:57:59;;;;;;;25.15;16.83;;;;;;;18.60;31.58;100226.19;5068418;28;20023;-29
2022/12/22 13:00:33;;;;;;;22.73;15.55;;;;;;;18.66;31.77;100225.91;5068480;28;20032;-29
2022/12/22 13:03:10;;;;;;;26.38;16.30;;;;;;;18.98;30.55;100221.34;5068673;28;20709;-30
2022/12/22 13:05:47;;;;;;;23.48;16.65;;;;;;;19.43;29.70;100235.91;5050633;28;20059;-31
2022/12/22 13:08:20;;;;;;;25.42;19.30;;;;;;;19.24;30.86;100239.16;5049945;28;20048;-34
2022/12/22 13:10:46;;;;;;;21.98;14.25;;;;;;;19.45;29.26;100239.97;5068454;28;20029;-29
2022/12/22 13:13:21;;;;;;;20.52;14.38;;;;;;;19.19;29.84;100236.47;5067951;28;20111;-30
2022/12/22 13:16:07;;;;;;;20.40;13.55;;;;;;;18.42;30.60;100222.91;5050452;28;20033;-36
2022/12/22 13:18:32;;;;;;;22.55;13.68;;;;;;;19.03;29.76;100229.47;5057057;28;20048;-30
2022/12/22 13:21:07;;;;;;;20.90;14.93;;;;;;;19.25;29.01;100221.88;5050168;28;20064;-30
2022/12/22 13:23:58;;;;;;;18.27;14.05;;;;;;;19.37;28.73;100218.06;5068486;28;20055;-32
2022/12/22 13:26:31;;;;;;;18.90;13.40;;;;;;;19.77;29.41;100225.28;5053833;28;20036;-28
2022/12/22 13:29:00;;;;;;;25.48;17.42;;;;;;;20.15;28.68;100222.16;5067971;28;20036;-32
2022/12/22 13:31:42;;;;;;;24.42;16.33;;;;;;;19.54;29.44;100215.88;5068100;28;20033;-30
2022/12/22 13:34:45;;;;;;;19.98;14.70;;;;;;;18.72;30.17;100221.31;5049650;28;20127;-30
2022/12/22 13:37:16;;;;;;;21.45;15.27;;;;;;;18.61;30.60;100222.38;5067785;28;20067;-32
2022/12/22 13:39:41;;;;;;;22.40;15.90;;;;;;;18.24;31.56;100216.09;5067820;28;20498;-28
2022/12/22 13:42:11;;;;;;;36.50;26.88;;;;;;;18.43;30.85;100212.94;5067197;28;20033;-28
2022/12/22 13:44:38;;;;;;;19.80;13.77;;;;;;;17.81;31.87;100206.47;5068170;28;20178;-30
2022/12/22 13:47:09;;;;;;;22.05;16.73;;;;;;;16.97;33.30;100208.16;5067638;28;20033;-29
2022/12/22 13:49:35;;;;;;;23.33;15.73;;;;;;;17.46;32.24;100210.63;5067761;28;20151;-34
2022/12/22 13:52:01;;;;;;;21.90;15.32;;;;;;;17.70;31.64;100215.63;5049203;28;20133;-34
2022/12/22 13:54:36;;;;;;;20.98;14.98;;;;;;;16.51;33.66;100199.63;5049548;28;20148;-29
2022/12/22 13:57:10;;;;;;;27.73;15.65;;;;;;;13.89;38.82;100176.94;5067411;28;20063;-29
2022/12/22 13:59:41;;;;;;;20.80;14.68;;;;;;;12.43;42.07;100180.31;5049620;28;20445;-34
2022/12/22 14:02:10;;;;;;;18.55;13.55;;;;;;;11.68;44.90;100184.13;5049249;28;20036;-29
2022/12/22 14:04:37;;;;;;;19.15;13.05;;;;;;;11.00;47.04;100177.00;5049414;28;20024;-29
2022/12/22 14:07:18;;;;;;;22.38;13.82;;;;;;;10.52;48.57;100180.25;5049145;28;20033;-33
2022/12/22 14:09:53;;;;;;;21.83;14.07;;;;;;;10.26;49.83;100155.38;5049223;28;20051;-29
2022/12/22 14:12:23;;;;;;;26.35;16.02;;;;;;;10.12;50.63;100164.47;5066705;28;20033;-30
2022/12/22 14:14:51;;;;;;;28.38;17.75;;;;;;;9.88;50.59;100150.03;5049215;28;20036;-31
2022/12/22 14:17:32;;;;;;;24.48;15.65;;;;;;;9.88;51.66;100164.16;5067344;28;20032;-28
2022/12/22 14:20:01;;;;;;;30.63;17.80;;;;;;;9.78;52.03;100177.91;5048664;28;20045;-29
2022/12/22 14:22:35;;;;;;;27.50;16.02;;;;;;;9.33;52.44;100155.75;5066940;28;20566;-29
2022/12/22 14:25:14;;;;;;;33.60;17.92;;;;;;;9.48;52.54;100171.47;5049041;28;20040;-29
2022/12/22 14:27:53;;;;;;;27.75;17.33;;;;;;;9.23;53.37;100178.28;5048424;28;20028;-29
2022/12/22 14:30:28;;;;;;;24.35;16.48;;;;;;;9.15;53.54;100172.34;5067051;28;20114;-27
2022/12/22 14:32:55;;;;;;;31.40;17.00;;;;;;;8.81;54.21;100168.91;5067069;28;20032;-27
2022/12/22 14:35:20;;;;;;;34.72;19.88;;;;;;;9.03;53.68;100156.19;5049006;28;20473;-28
2022/12/22 14:38:22;;;;;;;42.00;21.35;;;;;;;9.25;53.42;100175.41;5066858;28;20024;-30
2022/12/22 14:40:48;;;;;;;35.83;21.83;;;;;;;9.29;56.24;100151.88;5066598;28;20029;-29
2022/12/22 14:43:16;;;;;;;53.22;32.42;;;;;;;9.40;56.73;100168.03;5048665;28;20036;-33
2022/12/22 14:45:42;;;;;;;;;;;;;;;9.32;57.86;100167.44;5067204;28;20403;-28
2022/12/22 14:48:30;;;;;;;34.47;22.08;;;;;;;9.20;56.27;100172.56;5048476;28;19905;-29
2022/12/22 14:50:56;;;;;;;33.13;20.52;;;;;;;8.99;56.23;100160.28;5066385;28;20032;-27
2022/12/22 14:53:25;;;;;;;35.75;21.70;;;;;;;8.95;57.38;100156.41;5066786;28;20072;-28
2022/12/22 14:55:52;;;;;;;141.48;71.60;;;;;;;9.03;57.60;100172.16;5066925;28;20028;-29
2022/12/22 14:58:25;;;;;;;76.28;37.85;;;;;;;8.92;57.68;100164.81;5066131;28;20074;-27
2022/12/22 15:01:12;;;;;;;60.97;36.47;;;;;;;8.90;57.48;100169.50;5066180;28;20035;-30
2022/12/22 15:03:39;;;;;;;62.85;30.83;;;;;;;8.70;58.80;100154.38;5048094;28;20009;-28
2022/12/22 15:06:41;;;;;;;61.13;39.60;;;;;;;8.34;61.92;100158.19;5048131;28;20115;-28
2022/12/22 15:09:12;;;;;;;35.95;23.88;;;;;;;7.82;60.51;100165.78;5004272;28;20044;-29